Time;durP1;ratioP1;P1;durP2;ratioP2;P2;SDS_P1;SDS_P2;PMS_P1;PMS_P2;Temp;Humidity;BMP_temperature;BMP_pressure;BME280_temperature;BME280_humidity;BME280_pressure;Samples;Min_cycle;Max_cycle;Signal;HPM_P1;HPM_P2
2023/08/23 00:02:01;;;;;;;2.73;1.77;;;16.90;1.00;;;;;;6221613;23;20172;-90
2023/08/23 00:04:29;;;;;;;4.50;1.83;;;17.00;1.00;;;;;;6219433;23;20194;-89
2023/08/23 00:06:55;;;;;;;3.03;1.53;;;16.10;1.00;;;;;;6219752;23;20270;-91
2023/08/23 00:09:20;;;;;;;2.70;1.47;;;16.10;1.00;;;;;;6219696;23;20163;-92
2023/08/23 00:11:46;;;;;;;7.50;2.00;;;17.00;1.00;;;;;;6220047;23;20156;-92
2023/08/23 00:14:11;;;;;;;1.63;1.47;;;16.40;1.00;;;;;;6221112;23;20152;-91
2023/08/23 00:16:39;;;;;;;2.37;1.70;;;16.20;1.00;;;;;;6219950;23;20222;-92
2023/08/23 00:19:04;;;;;;;2.97;1.57;;;16.50;1.00;;;;;;6220006;23;20167;-91
2023/08/23 00:21:30;;;;;;;2.27;1.67;;;15.90;1.00;;;;;;6220714;23;20160;-90
2023/08/23 00:23:56;;;;;;;3.20;1.57;;;15.90;1.00;;;;;;6218806;23;20168;-91
2023/08/23 00:26:22;;;;;;;4.43;1.80;;;16.40;1.00;;;;;;6219026;23;20184;-92
2023/08/23 00:28:48;;;;;;;2.63;1.73;;;16.20;1.00;;;;;;6219748;23;20168;-91
2023/08/23 00:31:14;;;;;;;4.30;1.73;;;16.20;1.00;;;;;;6219462;23;20222;-91
2023/08/23 00:33:40;;;;;;;3.67;1.67;;;15.70;1.00;;;;;;6220212;23;20152;-91
2023/08/23 00:36:05;;;;;;;5.53;1.70;;;16.30;1.00;;;;;;6219502;23;20203;-91
2023/08/23 00:38:33;;;;;;;3.53;1.83;;;15.70;1.00;;;;;;6219385;23;20613;-90
2023/08/23 00:40:59;;;;;;;2.23;1.63;;;15.70;1.00;;;;;;6220515;23;20188;-91
2023/08/23 00:43:24;;;;;;;5.93;1.67;;;15.60;1.00;;;;;;6219306;23;20160;-92
2023/08/23 00:45:50;;;;;;;4.93;1.67;;;16.70;1.00;;;;;;6219344;23;20176;-92
2023/08/23 00:48:16;;;;;;;5.63;2.00;;;16.00;1.00;;;;;;6219163;23;20191;-92
2023/08/23 00:50:45;;;;;;;2.80;1.73;;;15.50;1.00;;;;;;6219254;23;20162;-91
2023/08/23 00:53:12;;;;;;;3.57;1.90;;;15.60;1.00;;;;;;6218945;23;20300;-91
2023/08/23 00:55:38;;;;;;;2.50;1.60;;;15.60;1.00;;;;;;6219933;23;20240;-90
2023/08/23 00:58:04;;;;;;;2.47;1.53;;;15.60;1.00;;;;;;6219041;23;20160;-92
2023/08/23 01:00:33;;;;;;;4.67;1.70;;;15.40;1.00;;;;;;6219559;23;20254;-92
2023/08/23 01:02:59;;;;;;;2.80;1.70;;;15.40;1.00;;;;;;6220372;23;20160;-92
2023/08/23 01:05:54;;;;;;;2.67;1.70;;;15.50;1.00;;;;;;6219384;23;20567;-92
2023/08/23 01:08:41;;;;;;;5.23;1.70;;;15.40;1.00;;;;;;6201171;23;20199;-91
2023/08/23 01:11:33;;;;;;;3.67;1.60;;;15.30;1.00;;;;;;6223784;23;20175;-91
2023/08/23 01:14:16;;;;;;;2.33;1.50;;;15.30;1.00;;;;;;6235924;23;20160;-91
2023/08/23 01:16:45;;;;;;;2.13;1.60;;;15.30;1.00;;;;;;6221374;23;20152;-91
2023/08/23 01:19:30;;;;;;;2.10;1.50;;;15.20;1.00;;;;;;6220465;23;20593;-89
2023/08/23 01:21:57;;;;;;;6.27;1.90;;;15.20;1.00;;;;;;6220269;23;20158;-91
2023/08/23 01:24:23;;;;;;;2.57;1.40;;;16.20;1.00;;;;;;6220468;23;20183;-91
2023/08/23 01:26:48;;;;;;;3.17;1.60;;;15.30;1.00;;;;;;6219938;23;20183;-92
2023/08/23 01:29:16;;;;;;;4.97;1.70;;;15.20;1.00;;;;;;6223821;23;20159;-90
2023/08/23 01:31:45;;;;;;;5.03;2.00;;;16.20;1.00;;;;;;6226510;23;20283;-91
2023/08/23 01:34:28;;;;;;;2.27;1.70;;;16.40;1.00;;;;;;6207175;23;20161;-90
2023/08/23 01:36:54;;;;;;;5.53;1.73;;;15.10;1.00;;;;;;6219706;23;20160;-91
2023/08/23 01:39:25;;;;;;;3.53;1.50;;;15.10;1.00;;;;;;6220273;23;20160;-89
2023/08/23 01:41:52;;;;;;;2.97;1.80;;;15.00;1.00;;;;;;6220875;23;20171;-91
2023/08/23 01:44:17;;;;;;;2.40;1.87;;;15.00;1.00;;;;;;6233795;23;20184;-89
2023/08/23 01:46:43;;;;;;;2.27;1.57;;;15.00;1.00;;;;;;6219647;23;20683;-92
2023/08/23 01:49:09;;;;;;;6.57;1.97;;;15.00;1.00;;;;;;6220398;23;20156;-89
2023/08/23 01:51:35;;;;;;;3.23;1.80;;;15.00;1.00;;;;;;6220280;23;20586;-88
2023/08/23 01:54:02;;;;;;;5.83;1.97;;;15.00;1.00;;;;;;6219917;23;20167;-90
2023/08/23 01:56:28;;;;;;;5.73;2.00;;;15.20;1.00;;;;;;6221885;23;20175;-87
2023/08/23 01:58:54;;;;;;;4.23;1.70;;;15.80;1.00;;;;;;6218538;23;20594;-86
2023/08/23 02:01:19;;;;;;;4.00;1.80;;;15.10;1.00;;;;;;6218539;23;20164;-88
2023/08/23 02:03:45;;;;;;;3.70;1.77;;;14.80;1.00;;;;;;6219138;23;20160;-88
2023/08/23 02:06:10;;;;;;;4.93;1.90;;;14.90;1.00;;;;;;6218755;23;20186;-88
2023/08/23 02:08:36;;;;;;;2.37;1.70;;;15.90;1.00;;;;;;6220358;23;20158;-89
2023/08/23 02:11:02;;;;;;;2.73;1.70;;;16.20;1.00;;;;;;6221200;23;20252;-92
2023/08/23 02:13:27;;;;;;;4.43;1.93;;;15.10;1.00;;;;;;6221651;23;20160;-93
2023/08/23 02:15:53;;;;;;;4.43;1.43;;;14.80;1.00;;;;;;6222737;23;20228;-90
2023/08/23 02:18:21;;;;;;;5.67;1.47;;;15.70;1.00;;;;;;6221363;23;20224;-91
2023/08/23 02:20:54;;;;;;;3.20;1.40;;;16.40;1.00;;;;;;6221284;23;20571;-92
2023/08/23 02:23:19;;;;;;;3.20;1.67;;;14.70;1.00;;;;;;6220871;23;20163;-91
2023/08/23 02:25:45;;;;;;;4.80;1.70;;;14.60;1.00;;;;;;6221527;23;20203;-92
2023/08/23 02:28:10;;;;;;;3.00;1.40;;;15.60;1.00;;;;;;6196358;23;20245;-91
2023/08/23 02:30:36;;;;;;;2.87;1.40;;;14.60;1.00;;;;;;6221149;23;20608;-91
2023/08/23 02:33:01;;;;;;;3.57;1.37;;;14.50;1.00;;;;;;6221407;23;20243;-92
2023/08/23 02:35:27;;;;;;;4.47;1.47;;;14.50;1.00;;;;;;6220552;23;20663;-91
2023/08/23 02:37:54;;;;;;;1.90;1.37;;;14.70;1.00;;;;;;6220196;23;20157;-92
2023/08/23 02:40:20;;;;;;;2.37;1.50;;;14.50;1.00;;;;;;6220702;23;20164;-92
2023/08/23 02:42:45;;;;;;;4.07;1.60;;;15.10;1.00;;;;;;6195739;23;20504;-92
2023/08/23 02:45:11;;;;;;;1.97;1.50;;;14.40;1.00;;;;;;6222138;23;20180;-90
2023/08/23 02:47:36;;;;;;;3.53;1.80;;;14.50;1.00;;;;;;6219906;23;20195;-92
2023/08/23 02:50:03;;;;;;;2.10;1.70;;;14.90;1.00;;;;;;6221374;23;20195;-91
2023/08/23 02:52:28;;;;;;;5.60;1.73;;;14.40;1.00;;;;;;6219263;23;20156;-91
2023/08/23 02:54:54;;;;;;;6.37;2.20;;;14.30;1.00;;;;;;6221551;23;20322;-91
2023/08/23 02:57:19;;;;;;;5.57;2.07;;;14.30;1.00;;;;;;6219970;23;20167;-93
2023/08/23 02:59:45;;;;;;;4.03;1.93;;;14.40;1.00;;;;;;6223159;23;20588;-91
2023/08/23 03:02:10;;;;;;;6.33;2.03;;;14.40;1.00;;;;;;6240848;23;20164;-85
2023/08/23 03:04:36;;;;;;;6.43;2.20;;;15.30;1.00;;;;;;6225946;23;20266;-90
2023/08/23 03:07:01;;;;;;;3.40;1.77;;;14.40;1.00;;;;;;6219659;23;20183;-91
2023/08/23 03:09:27;;;;;;;5.57;2.00;;;14.20;1.00;;;;;;6219572;23;20569;-89
2023/08/23 03:11:53;;;;;;;2.63;1.80;;;14.80;1.00;;;;;;6219053;23;20153;-91
2023/08/23 03:14:18;;;;;;;4.10;1.73;;;15.20;1.00;;;;;;6195452;23;20184;-92
2023/08/23 03:16:44;;;;;;;7.40;2.13;;;14.70;1.00;;;;;;6220382;23;20160;-89
2023/08/23 03:19:09;;;;;;;4.00;1.87;;;14.30;1.00;;;;;;6219105;23;20169;-92
2023/08/23 03:21:35;;;;;;;3.83;1.73;;;15.00;1.00;;;;;;6219593;23;20167;-90
2023/08/23 03:24:02;;;;;;;6.50;1.47;;;15.30;1.00;;;;;;6218612;23;20172;-88
2023/08/23 03:26:27;;;;;;;3.60;1.87;;;14.20;1.00;;;;;;6223249;23;20180;-91
2023/08/23 03:28:53;;;;;;;6.47;2.37;;;14.10;1.00;;;;;;6218362;23;20211;-90
2023/08/23 03:31:19;;;;;;;3.93;1.80;;;16.00;1.00;;;;;;6219998;23;20152;-90
2023/08/23 03:33:44;;;;;;;4.40;1.87;;;14.90;1.00;;;;;;6220706;23;20171;-90
2023/08/23 03:36:10;;;;;;;3.63;1.90;;;14.10;1.00;;;;;;6218584;23;20180;-90
2023/08/23 03:38:36;;;;;;;3.90;2.13;;;13.90;1.00;;;;;;6219611;23;20153;-89
2023/08/23 03:41:01;;;;;;;5.77;2.00;;;14.20;1.00;;;;;;6221822;23;20159;-91
2023/08/23 03:43:28;;;;;;;4.10;2.10;;;14.30;1.00;;;;;;6232373;23;20288;-92
2023/08/23 03:45:54;;;;;;;2.00;1.80;;;15.40;1.00;;;;;;6222379;23;20184;-91
2023/08/23 03:48:19;;;;;;;3.40;1.67;;;14.80;1.00;;;;;;6232645;23;20183;-91
2023/08/23 03:50:45;;;;;;;6.37;1.47;;;14.50;1.00;;;;;;6228990;23;20224;-91
2023/08/23 03:53:11;;;;;;;3.40;1.33;;;15.00;1.00;;;;;;6220256;23;20161;-91
2023/08/23 03:55:36;;;;;;;7.77;1.63;;;13.70;1.00;;;;;;6222726;23;20202;-91
2023/08/23 03:58:05;;;;;;;4.73;1.67;;;15.00;1.00;;;;;;6220483;23;20243;-91
2023/08/23 04:00:31;;;;;;;3.43;1.80;;;13.80;1.00;;;;;;6220749;23;20159;-92
2023/08/23 04:02:56;;;;;;;5.10;1.73;;;13.70;1.00;;;;;;6219874;23;20494;-92
2023/08/23 04:05:22;;;;;;;8.47;1.93;;;14.00;1.00;;;;;;6221389;23;20172;-94
2023/08/23 04:07:48;;;;;;;6.57;1.80;;;13.70;1.00;;;;;;6216953;23;20187;-92
2023/08/23 04:10:14;;;;;;;5.17;2.10;;;15.50;1.00;;;;;;6196341;23;20502;-88
2023/08/23 04:12:39;;;;;;;10.43;2.10;;;13.70;1.00;;;;;;6244480;23;20137;-84
2023/08/23 04:15:05;;;;;;;4.63;1.40;;;13.80;1.00;;;;;;6244348;23;20243;-89
2023/08/23 04:17:31;;;;;;;3.77;1.40;;;13.60;1.00;;;;;;6233710;23;20168;-92
2023/08/23 04:19:57;;;;;;;6.97;1.77;;;13.60;1.00;;;;;;6194669;23;20172;-90
2023/08/23 04:22:23;;;;;;;3.53;1.30;;;13.50;1.00;;;;;;6219030;23;20195;-90
2023/08/23 04:24:49;;;;;;;5.10;1.80;;;13.50;1.00;;;;;;6219184;23;20271;-92
2023/08/23 04:27:16;;;;;;;2.37;1.47;;;14.60;1.00;;;;;;6219251;23;20699;-91
2023/08/23 04:29:43;;;;;;;7.80;1.83;;;13.50;1.00;;;;;;6220088;23;20201;-91
2023/08/23 04:32:12;;;;;;;3.30;1.70;;;14.20;1.00;;;;;;6219167;23;20166;-91
2023/08/23 04:34:38;;;;;;;5.83;1.53;;;13.30;1.00;;;;;;6219881;23;20183;-91
2023/08/23 04:37:05;;;;;;;3.23;1.70;;;14.50;1.00;;;;;;6218713;23;20164;-91
2023/08/23 04:39:32;;;;;;;3.27;1.63;;;13.40;1.00;;;;;;6220449;23;20494;-91
2023/08/23 04:41:57;;;;;;;4.37;2.10;;;14.70;1.00;;;;;;6218470;23;20678;-92
2023/08/23 04:44:23;;;;;;;4.73;1.90;;;13.40;1.00;;;;;;6194065;23;20184;-91
2023/08/23 04:46:49;;;;;;;6.90;2.27;;;15.20;1.00;;;;;;6219571;23;20226;-91
2023/08/23 04:49:14;;;;;;;5.17;2.20;;;13.50;1.00;;;;;;6219807;23;20170;-91
2023/08/23 04:51:40;;;;;;;7.73;2.00;;;14.00;1.00;;;;;;6220649;23;20163;-90
2023/08/23 04:54:06;;;;;;;3.80;2.20;;;13.60;1.00;;;;;;6194519;23;20160;-90
2023/08/23 04:56:31;;;;;;;3.80;2.00;;;13.40;1.00;;;;;;6219235;23;20597;-91
2023/08/23 04:58:57;;;;;;;4.00;1.67;;;13.40;1.00;;;;;;6218883;23;20221;-89
2023/08/23 05:01:23;;;;;;;3.20;1.60;;;14.80;1.00;;;;;;6220079;23;20164;-92
2023/08/23 05:03:48;;;;;;;4.67;1.73;;;13.80;1.00;;;;;;6219784;23;20648;-92
2023/08/23 05:06:17;;;;;;;4.90;2.27;;;13.40;1.00;;;;;;6220046;23;20180;-91
2023/08/23 05:08:44;;;;;;;5.43;1.70;;;14.00;1.00;;;;;;6194844;23;20187;-92
2023/08/23 05:11:11;;;;;;;7.27;1.80;;;13.40;1.00;;;;;;6221064;23;20166;-92
2023/08/23 05:13:36;;;;;;;3.40;1.90;;;13.40;1.00;;;;;;6221762;23;20163;-92
2023/08/23 05:16:04;;;;;;;6.90;1.67;;;13.60;1.00;;;;;;6220799;23;20176;-89
2023/08/23 05:18:29;;;;;;;7.33;1.73;;;13.40;1.00;;;;;;6223197;23;20231;-90
2023/08/23 05:20:59;;;;;;;5.03;2.17;;;14.30;1.00;;;;;;6223190;23;20159;-92
2023/08/23 05:23:25;;;;;;;6.30;2.50;;;13.40;1.00;;;;;;6220940;23;20189;-92
2023/08/23 05:25:52;;;;;;;7.30;3.20;;;13.60;1.00;;;;;;6220801;23;20180;-89
2023/08/23 05:28:21;;;;;;;6.40;2.37;;;13.70;1.00;;;;;;6221030;23;20242;-90
2023/08/23 05:30:50;;;;;;;6.27;2.53;;;14.20;1.00;;;;;;6221796;23;20156;-91
2023/08/23 05:33:16;;;;;;;3.10;2.00;;;13.70;1.00;;;;;;6221349;23;20152;-90
2023/08/23 05:35:43;;;;;;;3.60;2.00;;;13.70;1.00;;;;;;6220459;23;20287;-91
2023/08/23 05:38:09;;;;;;;4.83;2.60;;;14.10;1.00;;;;;;6229541;23;20154;-89
2023/08/23 05:40:36;;;;;;;4.90;2.47;;;14.90;1.00;;;;;;6222887;23;20191;-89
2023/08/23 05:43:03;;;;;;;4.53;2.27;;;13.90;1.00;;;;;;6219460;23;20180;-89
2023/08/23 05:45:29;;;;;;;7.27;2.43;;;13.90;1.00;;;;;;6221397;23;20178;-90
2023/08/23 05:47:56;;;;;;;4.80;2.40;;;14.10;1.00;;;;;;6194854;23;20190;-90
2023/08/23 05:50:22;;;;;;;5.33;2.93;;;14.00;1.00;;;;;;6221318;23;20596;-90
2023/08/23 05:52:48;;;;;;;7.73;2.77;;;14.10;1.00;;;;;;6220761;23;20160;-89
2023/08/23 05:55:14;;;;;;;10.23;2.97;;;14.20;1.00;;;;;;6222110;23;20253;-90
2023/08/23 05:57:40;;;;;;;10.53;2.93;;;14.20;1.00;;;;;;6222810;23;20637;-90
2023/08/23 06:00:09;;;;;;;7.33;2.93;;;14.20;1.00;;;;;;6223148;23;20160;-90
2023/08/23 06:02:35;;;;;;;3.90;3.07;;;14.40;1.00;;;;;;6221587;23;20219;-89
2023/08/23 06:05:03;;;;;;;9.70;3.40;;;14.60;1.00;;;;;;6224074;23;20195;-89
2023/08/23 06:07:28;;;;;;;6.13;3.27;;;14.60;1.00;;;;;;6229467;23;20169;-89
2023/08/23 06:09:54;;;;;;;7.93;3.20;;;15.10;1.00;;;;;;6231245;23;20232;-90
2023/08/23 06:12:20;;;;;;;6.63;3.30;;;14.80;14.00;;;;;;6221763;23;20597;-90
2023/08/23 06:14:47;;;;;;;13.67;4.33;;;14.80;27.40;;;;;;6222480;23;20167;-90
2023/08/23 06:17:12;;;;;;;10.90;4.40;;;15.00;39.50;;;;;;6221169;23;20481;-90
2023/08/23 06:19:38;;;;;;;14.67;4.40;;;15.10;47.90;;;;;;6221444;23;20164;-90
2023/08/23 06:22:03;;;;;;;13.13;4.50;;;15.20;55.90;;;;;;6220397;23;20156;-90
2023/08/23 06:24:29;;;;;;;12.73;4.67;;;15.40;58.90;;;;;;6222442;23;20621;-92
2023/08/23 06:26:55;;;;;;;10.10;5.10;;;15.40;65.90;;;;;;6219899;23;20191;-89
2023/08/23 06:29:20;;;;;;;10.43;4.80;;;15.90;79.00;;;;;;6195489;23;20495;-89
2023/08/23 06:31:46;;;;;;;11.63;4.57;;;15.70;92.80;;;;;;6219869;23;20164;-90
2023/08/23 06:34:11;;;;;;;9.73;4.30;;;16.00;98.00;;;;;;6220212;23;20165;-91
2023/08/23 06:36:37;;;;;;;13.10;4.67;;;16.00;99.20;;;;;;6194581;23;20176;-91
2023/08/23 06:39:02;;;;;;;12.63;5.03;;;16.10;99.90;;;;;;6220506;23;20164;-90
2023/08/23 06:41:28;;;;;;;18.23;5.83;;;16.30;99.90;;;;;;6219969;23;20628;-89
2023/08/23 06:44:01;;;;;;;14.00;5.23;;;16.50;99.90;;;;;;6219876;23;20160;-89
2023/08/23 06:46:27;;;;;;;14.07;5.20;;;16.60;99.90;;;;;;6194669;23;20198;-90
2023/08/23 06:48:54;;;;;;;9.93;5.50;;;16.80;99.90;;;;;;6220012;23;20188;-90
2023/08/23 06:51:20;;;;;;;14.87;5.67;;;17.00;99.90;;;;;;6221935;23;20145;-90
2023/08/23 06:53:47;;;;;;;7.90;5.13;;;17.40;99.90;;;;;;6220202;23;20175;-89
2023/08/23 06:56:12;;;;;;;13.30;5.43;;;17.70;99.90;;;;;;6195081;23;20192;-91
2023/08/23 06:58:38;;;;;;;11.03;4.97;;;17.50;99.90;;;;;;6220395;23;20153;-91
2023/08/23 07:01:13;;;;;;;10.73;5.20;;;17.70;99.90;;;;;;6195139;23;20528;-91
2023/08/23 07:03:40;;;;;;;11.73;4.63;;;17.90;99.90;;;;;;6220205;23;20179;-91
2023/08/23 07:06:05;;;;;;;8.80;4.67;;;18.20;99.90;;;;;;6221438;23;20168;-90
2023/08/23 07:08:31;;;;;;;12.30;6.53;;;18.30;98.70;;;;;;6220124;23;20188;-91
2023/08/23 07:10:56;;;;;;;15.37;5.40;;;18.50;95.70;;;;;;6221199;23;20187;-89
2023/08/23 07:13:22;;;;;;;16.73;4.37;;;18.70;91.50;;;;;;6221815;23;20155;-89
2023/08/23 07:15:49;;;;;;;12.97;5.37;;;18.90;75.90;;;;;;6221710;23;20168;-90
2023/08/23 07:18:15;;;;;;;15.87;4.60;;;19.10;67.10;;;;;;6220114;23;20501;-90
2023/08/23 07:20:40;;;;;;;15.53;4.50;;;19.30;57.40;;;;;;6219839;23;20164;-90
2023/08/23 07:23:06;;;;;;;7.87;4.03;;;19.50;49.70;;;;;;6222224;23;20235;-89
2023/08/23 07:25:33;;;;;;;10.33;4.30;;;19.70;36.50;;;;;;6221515;23;20206;-90
2023/08/23 07:27:58;;;;;;;9.73;4.70;;;19.80;27.90;;;;;;6196757;23;20188;-90
2023/08/23 07:30:24;;;;;;;9.73;3.50;;;20.00;20.00;;;;;;6220847;23;20153;-90
2023/08/23 07:32:50;;;;;;;10.40;3.80;;;20.10;10.70;;;;;;6223865;23;20443;-90
2023/08/23 07:35:15;;;;;;;10.27;3.97;;;20.20;6.30;;;;;;6232343;23;20243;-89
2023/08/23 07:37:41;;;;;;;8.77;4.33;;;20.30;1.00;;;;;;6195457;23;20187;-90
2023/08/23 07:40:07;;;;;;;10.63;4.30;;;20.40;1.00;;;;;;6222454;23;20179;-90
2023/08/23 07:42:33;;;;;;;10.70;3.80;;;20.50;1.00;;;;;;6220920;23;20160;-90
2023/08/23 07:44:59;;;;;;;11.97;4.73;;;20.70;1.00;;;;;;6222978;23;20176;-90
2023/08/23 07:47:24;;;;;;;9.93;3.90;;;20.90;1.00;;;;;;6221058;23;20188;-91
2023/08/23 07:49:51;;;;;;;14.07;4.30;;;21.10;1.00;;;;;;6220141;23;20160;-90
2023/08/23 07:52:17;;;;;;;13.27;3.80;;;21.30;1.00;;;;;;6220233;23;20160;-88
2023/08/23 07:54:43;;;;;;;10.07;3.60;;;21.40;1.00;;;;;;6221544;23;20192;-90
2023/08/23 07:57:09;;;;;;;8.47;4.10;;;21.50;1.00;;;;;;6222166;23;20295;-90
2023/08/23 07:59:35;;;;;;;7.77;3.33;;;21.50;1.00;;;;;;6222633;23;20561;-90
2023/08/23 08:02:01;;;;;;;10.93;3.20;;;21.70;1.00;;;;;;6219673;23;20216;-90
2023/08/23 08:04:29;;;;;;;10.17;3.90;;;21.80;1.00;;;;;;6220142;23;20187;-91
2023/08/23 08:06:56;;;;;;;13.10;3.60;;;22.00;1.00;;;;;;6221679;23;20237;-90
2023/08/23 08:09:22;;;;;;;18.50;4.03;;;22.20;1.00;;;;;;6219754;23;20164;-90
2023/08/23 08:11:49;;;;;;;18.13;5.00;;;22.10;1.00;;;;;;6220553;23;20156;-91
2023/08/23 08:14:15;;;;;;;9.03;3.37;;;22.00;1.00;;;;;;6238008;23;20190;-90
2023/08/23 08:16:40;;;;;;;8.60;2.83;;;22.20;1.00;;;;;;6218052;23;20601;-91
2023/08/23 08:19:06;;;;;;;6.20;2.87;;;22.30;1.00;;;;;;6229202;23;20153;-90
2023/08/23 08:21:31;;;;;;;9.90;2.77;;;22.40;1.00;;;;;;6219633;23;20156;-90
2023/08/23 08:23:58;;;;;;;10.33;3.30;;;22.60;1.00;;;;;;6221472;23;20160;-90
2023/08/23 08:26:25;;;;;;;9.13;3.07;;;22.80;1.00;;;;;;6221789;23;20166;-91
2023/08/23 08:28:51;;;;;;;7.17;2.80;;;23.10;1.00;;;;;;6221684;23;20176;-91
2023/08/23 08:31:16;;;;;;;7.60;2.90;;;23.30;1.00;;;;;;6220932;23;20187;-91
2023/08/23 08:33:42;;;;;;;5.10;2.70;;;23.40;1.00;;;;;;6220394;23;20156;-90
2023/08/23 08:36:08;;;;;;;5.87;2.57;;;23.50;1.00;;;;;;6195223;23;20254;-89
2023/08/23 08:38:34;;;;;;;9.33;3.20;;;23.70;1.00;;;;;;6220352;23;20230;-91
2023/08/23 08:40:59;;;;;;;11.60;2.80;;;23.80;99.90;;;;;;6219383;23;20160;-90
2023/08/23 08:43:26;;;;;;;12.33;2.60;;;23.80;99.90;;;;;;6219752;23;20167;-89
2023/08/23 08:45:54;;;;;;;8.83;2.83;;;23.80;99.90;;;;;;6220008;23;20180;-91
2023/08/23 08:48:20;;;;;;;4.90;2.60;;;23.80;99.90;;;;;;6219519;23;20184;-88
2023/08/23 08:50:48;;;;;;;6.97;2.53;;;23.80;1.00;;;;;;6222275;23;20203;-89
2023/08/23 08:53:16;;;;;;;5.57;2.33;;;23.70;21.30;;;;;;6220678;23;20179;-90
2023/08/23 08:55:42;;;;;;;10.30;2.90;;;23.70;1.00;;;;;;6219873;23;20192;-91
2023/08/23 08:58:08;;;;;;;3.90;2.20;;;23.70;19.00;;;;;;6221149;23;20168;-89
2023/08/23 09:00:35;;;;;;;5.33;2.27;;;23.80;99.90;;;;;;6220338;23;20167;-92
2023/08/23 09:03:02;;;;;;;3.87;2.40;;;24.00;99.90;;;;;;6220608;23;20192;-90
2023/08/23 09:05:28;;;;;;;8.23;2.93;;;24.10;1.00;;;;;;6221224;23;20719;-89
2023/08/23 09:07:56;;;;;;;3.67;2.27;;;24.30;1.00;;;;;;6220177;23;20187;-90
2023/08/23 09:10:24;;;;;;;5.13;1.90;;;24.50;1.00;;;;;;6220638;23;20167;-89
2023/08/23 09:12:49;;;;;;;9.43;2.03;;;24.60;1.00;;;;;;6220068;23;20186;-88
2023/08/23 09:15:19;;;;;;;6.27;2.10;;;24.60;1.00;;;;;;6219079;23;20259;-90
2023/08/23 09:17:45;;;;;;;9.17;2.43;;;24.70;1.00;;;;;;6219755;23;20210;-89
2023/08/23 09:20:11;;;;;;;6.53;2.50;;;24.80;30.70;;;;;;6219994;23;20601;-87
2023/08/23 09:22:36;;;;;;;5.97;2.80;;;24.80;99.90;;;;;;6219007;23;20160;-90
2023/08/23 09:25:03;;;;;;;12.77;2.53;;;24.70;1.00;;;;;;6218209;23;20258;-91
2023/08/23 09:27:29;;;;;;;7.13;2.20;;;24.60;1.00;;;;;;6217175;23;20263;-89
2023/08/23 09:29:56;;;;;;;9.27;2.30;;;24.80;1.00;;;;;;6231475;23;20160;-88
2023/08/23 09:32:21;;;;;;;7.40;2.30;;;25.00;1.00;;;;;;6223175;23;20210;-89
2023/08/23 09:34:47;;;;;;;8.87;2.40;;;25.20;1.00;;;;;;6223751;23;20183;-87
2023/08/23 09:37:13;;;;;;;7.03;2.97;;;25.40;1.00;;;;;;6223089;23;20156;-87
2023/08/23 09:39:39;;;;;;;5.53;2.47;;;25.60;1.00;;;;;;6223330;23;20163;-91
2023/08/23 09:42:13;;;;;;;8.10;2.40;;;25.70;99.90;;;;;;6224431;23;20156;-88
2023/08/23 09:44:43;;;;;;;7.07;2.70;;;25.90;58.00;;;;;;6224760;23;20176;-90
2023/08/23 09:47:15;;;;;;;7.33;2.77;;;26.10;99.90;;;;;;6225181;23;20180;-91
2023/08/23 09:49:43;;;;;;;6.70;2.60;;;26.00;1.00;;;;;;6223778;23;20160;-88
2023/08/23 09:52:11;;;;;;;7.13;2.63;;;26.00;1.00;;;;;;6224599;23;20192;-89
2023/08/23 09:54:58;;;;;;;5.10;2.20;;;26.00;99.90;;;;;;6223584;23;20208;-89
2023/08/23 09:57:25;;;;;;;4.33;2.43;;;25.90;1.00;;;;;;6222039;23;20214;-89
2023/08/23 09:59:51;;;;;;;9.63;2.83;;;25.80;1.00;;;;;;6222160;23;20156;-89
2023/08/23 10:02:18;;;;;;;7.20;2.40;;;25.90;27.80;;;;;;6220416;23;20176;-85
2023/08/23 10:04:44;;;;;;;3.77;1.80;;;26.10;99.90;;;;;;6226183;23;20239;-90
2023/08/23 10:07:15;;;;;;;3.23;1.60;;;26.30;1.00;;;;;;6223093;23;20184;-91
2023/08/23 10:09:41;;;;;;;3.40;1.20;;;26.50;1.00;;;;;;6223599;23;20156;-90
2023/08/23 10:12:08;;;;;;;4.67;1.53;;;26.50;99.90;;;;;;6223768;23;20157;-90
2023/08/23 10:14:39;;;;;;;3.00;1.40;;;26.60;99.90;;;;;;6223828;23;20236;-90
2023/08/23 10:17:08;;;;;;;5.90;1.70;;;26.60;1.00;;;;;;6223492;23;20656;-90
2023/08/23 10:19:34;;;;;;;4.15;1.48;;;26.60;99.90;;;;;;6224102;23;20564;-90
2023/08/23 10:22:00;;;;;;;8.50;2.10;;;26.60;1.00;;;;;;6224103;23;20160;-91
2023/08/23 10:24:29;;;;;;;4.30;1.73;;;26.70;23.60;;;;;;6224341;23;20594;-90
2023/08/23 10:26:55;;;;;;;3.92;1.83;;;26.70;99.90;;;;;;6223608;23;20188;-92
2023/08/23 10:29:27;;;;;;;4.32;2.05;;;26.70;1.00;;;;;;6225289;23;20156;-91
2023/08/23 10:31:54;;;;;;;9.85;2.38;;;26.80;1.00;;;;;;6224456;23;20604;-91
2023/08/23 10:34:27;;;;;;;7.72;2.60;;;26.90;1.00;;;;;;6223516;23;20180;-84
2023/08/23 10:36:54;;;;;;;6.03;2.33;;;26.90;99.90;;;;;;6228234;23;20164;-90
2023/08/23 10:39:26;;;;;;;4.13;2.78;;;27.00;1.00;;;;;;6218024;23;20160;-92
2023/08/23 10:41:54;;;;;;;6.55;2.72;;;27.10;99.90;;;;;;6242036;23;20155;-85
2023/08/23 10:44:20;;;;;;;4.20;2.63;;;27.20;1.00;;;;;;6236731;23;20191;-87
2023/08/23 10:46:49;;;;;;;7.68;2.90;;;27.20;1.00;;;;;;6221329;23;20183;-90
2023/08/23 10:49:20;;;;;;;8.93;3.63;;;27.30;1.00;;;;;;6219978;23;20215;-88
2023/08/23 10:51:47;;;;;;;6.50;2.88;;;27.30;1.00;;;;;;6219225;23;20239;-85
2023/08/23 10:54:13;;;;;;;6.63;2.72;;;27.20;99.90;;;;;;6219743;23;21122;-88
2023/08/23 10:56:40;;;;;;;5.82;2.70;;;27.30;1.00;;;;;;6219985;23;20180;-87
2023/08/23 10:59:09;;;;;;;7.78;3.45;;;27.30;99.90;;;;;;6219751;23;20160;-89
2023/08/23 11:01:37;;;;;;;6.63;3.15;;;27.30;1.00;;;;;;6219465;23;20160;-91
2023/08/23 11:04:03;;;;;;;9.52;2.63;;;27.20;1.00;;;;;;6219472;23;20160;-91
2023/08/23 11:06:30;;;;;;;8.25;3.80;;;27.30;1.00;;;;;;6219690;23;20163;-87
2023/08/23 11:08:57;;;;;;;5.28;3.08;;;27.20;99.90;;;;;;6219096;23;20189;-89
2023/08/23 11:11:28;;;;;;;7.25;2.88;;;27.10;99.90;;;;;;6219321;23;20156;-91
2023/08/23 11:13:54;;;;;;;10.30;3.20;;;27.10;1.00;;;;;;6220590;23;20152;-85
2023/08/23 11:16:21;;;;;;;6.13;3.28;;;27.20;1.00;;;;;;6194525;23;20168;-88
2023/08/23 11:18:47;;;;;;;7.28;2.80;;;27.30;1.00;;;;;;6218782;23;20167;-87
2023/08/23 11:21:12;;;;;;;5.10;2.47;;;27.40;1.00;;;;;;6218398;23;20465;-86
2023/08/23 11:23:38;;;;;;;7.10;2.58;;;27.40;1.00;;;;;;6218698;23;20222;-85
2023/08/23 11:26:04;;;;;;;5.88;2.95;;;27.40;99.90;;;;;;6221734;23;20172;-84
2023/08/23 11:28:30;;;;;;;5.32;2.83;;;27.40;1.00;;;;;;6228554;23;20268;-87
2023/08/23 11:30:58;;;;;;;5.32;2.72;;;27.40;1.00;;;;;;6220343;23;20148;-83
2023/08/23 11:33:24;;;;;;;7.30;3.00;;;27.40;1.00;;;;;;6218226;23;20166;-86
2023/08/23 11:35:50;;;;;;;6.75;2.90;;;27.40;1.00;;;;;;6218258;23;20216;-88
2023/08/23 11:38:16;;;;;;;4.28;3.10;;;27.40;1.00;;;;;;6218491;23;20167;-90
2023/08/23 11:40:45;;;;;;;9.50;3.90;;;27.60;1.00;;;;;;6218602;23;20160;-85
2023/08/23 11:43:14;;;;;;;9.93;4.05;;;27.70;99.90;;;;;;6193053;23;20191;-88
2023/08/23 11:45:41;;;;;;;5.55;3.47;;;27.80;1.00;;;;;;6218035;23;20227;-86
2023/08/23 11:48:09;;;;;;;5.63;3.50;;;27.80;99.90;;;;;;6218113;23;20192;-84
2023/08/23 11:50:37;;;;;;;5.40;3.75;;;28.00;1.00;;;;;;6219394;23;20160;-84
2023/08/23 11:53:04;;;;;;;9.88;3.83;;;28.10;99.90;;;;;;6194137;23;20210;-86
2023/08/23 11:55:32;;;;;;;8.27;3.55;;;28.20;99.90;;;;;;6217649;23;20536;-86
2023/08/23 11:57:58;;;;;;;5.40;3.17;;;28.30;99.90;;;;;;6218345;23;20165;-88
2023/08/23 12:00:24;;;;;;;6.80;3.55;;;28.40;99.90;;;;;;6217964;23;20250;-87
2023/08/23 12:02:49;;;;;;;6.97;4.18;;;28.50;1.00;;;;;;6217614;23;20167;-85
2023/08/23 12:05:17;;;;;;;6.32;4.65;;;28.50;1.00;;;;;;6217697;23;20674;-87
2023/08/23 12:07:43;;;;;;;9.43;4.38;;;28.50;99.90;;;;;;6217401;23;20184;-85
2023/08/23 12:10:11;;;;;;;12.38;4.63;;;28.40;99.90;;;;;;6217087;23;20219;-86
2023/08/23 12:12:37;;;;;;;8.77;4.85;;;28.40;99.90;;;;;;6217418;23;20239;-84
2023/08/23 12:15:04;;;;;;;11.40;5.38;;;28.50;99.90;;;;;;6218054;23;20191;-85
2023/08/23 12:17:32;;;;;;;11.65;5.45;;;28.50;99.90;;;;;;6216935;23;20206;-88
2023/08/23 12:19:59;;;;;;;8.68;3.63;;;28.50;99.90;;;;;;6216897;23;20159;-86
2023/08/23 12:22:24;;;;;;;8.68;4.18;;;28.60;1.00;;;;;;6217115;23;20608;-88
2023/08/23 12:24:50;;;;;;;10.77;4.07;;;28.70;99.90;;;;;;6218953;23;20179;-87
2023/08/23 12:27:16;;;;;;;6.07;3.58;;;28.80;1.00;;;;;;6218798;23;20534;-90
2023/08/23 12:29:41;;;;;;;7.50;3.38;;;28.90;1.00;;;;;;6215893;23;20233;-90
2023/08/23 12:32:08;;;;;;;7.40;5.60;;;29.00;99.90;;;;;;6215514;23;20167;-88
2023/08/23 12:34:34;;;;;;;7.82;5.13;;;29.00;99.90;;;;;;6235688;23;20203;-84
2023/08/23 12:37:01;;;;;;;8.43;5.38;;;29.00;99.90;;;;;;6244291;23;20155;-84
2023/08/23 12:39:29;;;;;;;7.85;5.45;;;29.10;99.90;;;;;;6244841;23;20160;-84
2023/08/23 12:41:55;;;;;;;8.15;4.97;;;29.10;99.90;;;;;;6244168;23;20179;-83
2023/08/23 12:44:21;;;;;;;7.43;4.28;;;29.10;99.90;;;;;;6244044;23;20172;-84
2023/08/23 12:46:46;;;;;;;11.35;5.20;;;29.20;99.90;;;;;;6244030;23;20168;-86
2023/08/23 12:49:12;;;;;;;11.02;6.10;;;29.30;1.00;;;;;;6244167;23;20158;-86
2023/08/23 12:51:42;;;;;;;9.07;4.78;;;29.40;99.90;;;;;;6244012;23;20152;-86